sensor_id;sensor_type;location;lat;lon;timestamp;temperature;humidity
15636;DHT22;7917;50.818;6.972;2023-05-10T00:00:07;12.70;99.90
15636;DHT22;7917;50.818;6.972;2023-05-10T00:02:36;12.70;99.90
15636;DHT22;7917;50.818;6.972;2023-05-10T00:05:02;12.70;99.90
15636;DHT22;7917;50.818;6.972;2023-05-10T00:07:29;12.70;99.90
15636;DHT22;7917;50.818;6.972;2023-05-10T00:09:56;12.70;99.90
15636;DHT22;7917;50.818;6.972;2023-05-10T00:12:23;12.80;99.90
15636;DHT22;7917;50.818;6.972;2023-05-10T00:14:50;12.70;99.90
15636;DHT22;7917;50.818;6.972;2023-05-10T00:17:17;12.70;99.90
15636;DHT22;7917;50.818;6.972;2023-05-10T00:19:44;12.70;99.90
15636;DHT22;7917;50.818;6.972;2023-05-10T00:22:11;12.70;99.90
15636;DHT22;7917;50.818;6.972;2023-05-10T00:24:37;12.70;99.90
15636;DHT22;7917;50.818;6.972;2023-05-10T00:27:04;12.70;99.90
15636;DHT22;7917;50.818;6.972;2023-05-10T00:29:32;12.70;99.90
15636;DHT22;7917;50.818;6.972;2023-05-10T00:31:59;12.70;99.90
15636;DHT22;7917;50.818;6.972;2023-05-10T00:34:26;12.70;99.90
15636;DHT22;7917;50.818;6.972;2023-05-10T00:36:53;12.70;99.90
15636;DHT22;7917;50.818;6.972;2023-05-10T00:39:19;12.70;99.90
15636;DHT22;7917;50.818;6.972;2023-05-10T00:41:46;12.70;99.90
15636;DHT22;7917;50.818;6.972;2023-05-10T00:44:13;12.70;99.90
15636;DHT22;7917;50.818;6.972;2023-05-10T00:46:40;12.70;99.90
15636;DHT22;7917;50.818;6.972;2023-05-10T00:49:07;12.70;99.90
15636;DHT22;7917;50.818;6.972;2023-05-10T00:51:34;12.70;99.90
15636;DHT22;7917;50.818;6.972;2023-05-10T00:54:01;12.70;99.90
15636;DHT22;7917;50.818;6.972;2023-05-10T00:56:29;12.70;99.90
15636;DHT22;7917;50.818;6.972;2023-05-10T00:59:11;12.70;99.90
15636;DHT22;7917;50.818;6.972;2023-05-10T01:01:38;12.80;99.90
15636;DHT22;7917;50.818;6.972;2023-05-10T01:04:06;12.80;99.90
15636;DHT22;7917;50.818;6.972;2023-05-10T01:06:33;12.80;99.90
15636;DHT22;7917;50.818;6.972;2023-05-10T01:09:15;12.80;99.90
15636;DHT22;7917;50.818;6.972;2023-05-10T01:11:42;12.80;99.90
15636;DHT22;7917;50.818;6.972;2023-05-10T01:14:09;12.80;99.90
15636;DHT22;7917;50.818;6.972;2023-05-10T01:16:38;12.80;99.90
15636;DHT22;7917;50.818;6.972;2023-05-10T01:19:20;12.80;99.90
15636;DHT22;7917;50.818;6.972;2023-05-10T01:21:53;12.80;99.90
15636;DHT22;7917;50.818;6.972;2023-05-10T01:24:40;12.80;99.90
15636;DHT22;7917;50.818;6.972;2023-05-10T01:33:45;12.80;99.90
15636;DHT22;7917;50.818;6.972;2023-05-10T01:36:19;12.80;99.90
15636;DHT22;7917;50.818;6.972;2023-05-10T01:39:11;12.80;99.90
15636;DHT22;7917;50.818;6.972;2023-05-10T01:41:47;12.80;99.90
15636;DHT22;7917;50.818;6.972;2023-05-10T01:44:18;12.80;99.90
15636;DHT22;7917;50.818;6.972;2023-05-10T01:46:51;12.80;99.90
15636;DHT22;7917;50.818;6.972;2023-05-10T01:49:23;12.80;99.90
15636;DHT22;7917;50.818;6.972;2023-05-10T01:51:53;12.80;99.90
15636;DHT22;7917;50.818;6.972;2023-05-10T01:54:21;12.80;99.90
15636;DHT22;7917;50.818;6.972;2023-05-10T01:56:55;12.80;99.90
15636;DHT22;7917;50.818;6.972;2023-05-10T01:59:29;12.70;99.90
15636;DHT22;7917;50.818;6.972;2023-05-10T02:01:58;12.70;99.90
15636;DHT22;7917;50.818;6.972;2023-05-10T02:04:27;12.70;99.90
15636;DHT22;7917;50.818;6.972;2023-05-10T02:06:55;12.70;99.90
15636;DHT22;7917;50.818;6.972;2023-05-10T02:09:23;12.70;99.90
15636;DHT22;7917;50.818;6.972;2023-05-10T02:11:52;12.70;99.90
15636;DHT22;7917;50.818;6.972;2023-05-10T02:14:21;12.70;99.90
15636;DHT22;7917;50.818;6.972;2023-05-10T02:16:51;12.70;99.90
15636;DHT22;7917;50.818;6.972;2023-05-10T02:19:19;12.70;99.90
15636;DHT22;7917;50.818;6.972;2023-05-10T02:21:47;12.70;99.90
15636;DHT22;7917;50.818;6.972;2023-05-10T02:24:18;12.70;99.90
15636;DHT22;7917;50.818;6.972;2023-05-10T02:26:45;12.70;99.90
15636;DHT22;7917;50.818;6.972;2023-05-10T02:29:14;12.70;99.90
15636;DHT22;7917;50.818;6.972;2023-05-10T02:31:42;12.70;99.90
15636;DHT22;7917;50.818;6.972;2023-05-10T02:34:10;12.70;99.90
15636;DHT22;7917;50.818;6.972;2023-05-10T02:36:38;12.70;99.90
15636;DHT22;7917;50.818;6.972;2023-05-10T02:39:07;12.70;99.90
15636;DHT22;7917;50.818;6.972;2023-05-10T02:41:37;12.70;99.90
15636;DHT22;7917;50.818;6.972;2023-05-10T02:44:06;12.70;99.90
15636;DHT22;7917;50.818;6.972;2023-05-10T02:46:38;12.70;99.90
15636;DHT22;7917;50.818;6.972;2023-05-10T02:49:05;12.80;99.90
15636;DHT22;7917;50.818;6.972;2023-05-10T02:51:35;12.80;99.90
15636;DHT22;7917;50.818;6.972;2023-05-10T02:54:11;12.80;99.90
15636;DHT22;7917;50.818;6.972;2023-05-10T02:56:42;12.80;99.90
15636;DHT22;7917;50.818;6.972;2023-05-10T02:59:09;12.80;99.90
15636;DHT22;7917;50.818;6.972;2023-05-10T03:01:37;12.80;99.90
15636;DHT22;7917;50.818;6.972;2023-05-10T03:04:04;12.80;99.90
15636;DHT22;7917;50.818;6.972;2023-05-10T03:06:31;12.80;99.90
15636;DHT22;7917;50.818;6.972;2023-05-10T03:08:58;12.80;99.90
15636;DHT22;7917;50.818;6.972;2023-05-10T03:11:37;12.80;99.90
15636;DHT22;7917;50.818;6.972;2023-05-10T03:14:21;12.80;99.90
15636;DHT22;7917;50.818;6.972;2023-05-10T03:16:56;12.80;99.90
15636;DHT22;7917;50.818;6.972;2023-05-10T03:19:27;12.80;99.90
15636;DHT22;7917;50.818;6.972;2023-05-10T03:21:59;12.80;99.90
15636;DHT22;7917;50.818;6.972;2023-05-10T03:24:30;12.80;99.90
15636;DHT22;7917;50.818;6.972;2023-05-10T03:27:00;12.80;99.90
15636;DHT22;7917;50.818;6.972;2023-05-10T03:29:29;12.80;99.90
15636;DHT22;7917;50.818;6.972;2023-05-10T03:32:11;12.80;99.90
15636;DHT22;7917;50.818;6.972;2023-05-10T03:34:41;12.80;99.90
15636;DHT22;7917;50.818;6.972;2023-05-10T03:37:08;12.80;99.90
15636;DHT22;7917;50.818;6.972;2023-05-10T03:39:35;12.80;99.90
15636;DHT22;7917;50.818;6.972;2023-05-10T03:42:02;12.80;99.90
15636;DHT22;7917;50.818;6.972;2023-05-10T03:44:29;12.80;99.90
15636;DHT22;7917;50.818;6.972;2023-05-10T03:46:56;12.80;99.90
15636;DHT22;7917;50.818;6.972;2023-05-10T03:49:23;12.80;99.90
15636;DHT22;7917;50.818;6.972;2023-05-10T03:51:50;12.80;99.90
15636;DHT22;7917;50.818;6.972;2023-05-10T03:57:23;12.90;99.90
15636;DHT22;7917;50.818;6.972;2023-05-10T04:03:19;12.90;99.90
15636;DHT22;7917;50.818;6.972;2023-05-10T04:06:18;12.90;99.90
15636;DHT22;7917;50.818;6.972;2023-05-10T04:08:46;12.90;99.90
15636;DHT22;7917;50.818;6.972;2023-05-10T04:11:12;12.90;99.90
15636;DHT22;7917;50.818;6.972;2023-05-10T04:13:40;12.90;99.90
15636;DHT22;7917;50.818;6.972;2023-05-10T04:16:08;12.90;99.90
15636;DHT22;7917;50.818;6.972;2023-05-10T04:19:06;12.90;99.90
15636;DHT22;7917;50.818;6.972;2023-05-10T04:25:12;12.90;99.90
15636;DHT22;7917;50.818;6.972;2023-05-10T04:27:44;12.90;99.90
15636;DHT22;7917;50.818;6.972;2023-05-10T04:33:30;12.90;99.90
15636;DHT22;7917;50.818;6.972;2023-05-10T04:35:57;13.00;99.90
15636;DHT22;7917;50.818;6.972;2023-05-10T04:45:35;13.00;99.90
15636;DHT22;7917;50.818;6.972;2023-05-10T04:51:00;13.00;99.90
15636;DHT22;7917;50.818;6.972;2023-05-10T04:53:32;13.00;99.90
15636;DHT22;7917;50.818;6.972;2023-05-10T04:59:23;13.10;99.90
15636;DHT22;7917;50.818;6.972;2023-05-10T05:01:54;13.10;99.90
15636;DHT22;7917;50.818;6.972;2023-05-10T05:04:49;13.10;99.90
15636;DHT22;7917;50.818;6.972;2023-05-10T05:08:11;13.20;99.90
15636;DHT22;7917;50.818;6.972;2023-05-10T05:10:39;13.20;99.90
15636;DHT22;7917;50.818;6.972;2023-05-10T05:16:12;13.30;99.90
15636;DHT22;7917;50.818;6.972;2023-05-10T05:18:42;13.30;99.90
15636;DHT22;7917;50.818;6.972;2023-05-10T05:21:15;13.30;99.90
15636;DHT22;7917;50.818;6.972;2023-05-10T05:31:04;13.50;99.90
15636;DHT22;7917;50.818;6.972;2023-05-10T05:33:53;13.50;99.90
15636;DHT22;7917;50.818;6.972;2023-05-10T05:36:44;13.50;99.90
15636;DHT22;7917;50.818;6.972;2023-05-10T05:42:56;13.40;99.90
15636;DHT22;7917;50.818;6.972;2023-05-10T05:48:55;13.50;99.90
15636;DHT22;7917;50.818;6.972;2023-05-10T05:51:22;13.60;99.90
15636;DHT22;7917;50.818;6.972;2023-05-10T05:53:49;13.80;99.90
15636;DHT22;7917;50.818;6.972;2023-05-10T05:56:15;13.70;99.90
15636;DHT22;7917;50.818;6.972;2023-05-10T05:58:43;13.80;99.90
15636;DHT22;7917;50.818;6.972;2023-05-10T06:01:10;13.90;99.90
15636;DHT22;7917;50.818;6.972;2023-05-10T06:03:37;14.00;99.90
15636;DHT22;7917;50.818;6.972;2023-05-10T06:06:05;14.10;99.90
15636;DHT22;7917;50.818;6.972;2023-05-10T06:08:32;14.20;99.90
15636;DHT22;7917;50.818;6.972;2023-05-10T06:10:59;14.20;99.90
15636;DHT22;7917;50.818;6.972;2023-05-10T06:13:26;14.10;99.90
15636;DHT22;7917;50.818;6.972;2023-05-10T06:15:58;14.10;99.90
15636;DHT22;7917;50.818;6.972;2023-05-10T06:18:24;14.20;99.90
15636;DHT22;7917;50.818;6.972;2023-05-10T06:20:51;14.40;99.90
15636;DHT22;7917;50.818;6.972;2023-05-10T06:23:18;14.50;99.90
15636;DHT22;7917;50.818;6.972;2023-05-10T06:25:45;14.60;99.90
15636;DHT22;7917;50.818;6.972;2023-05-10T06:28:12;14.70;99.90
15636;DHT22;7917;50.818;6.972;2023-05-10T06:30:39;14.80;99.90
15636;DHT22;7917;50.818;6.972;2023-05-10T06:33:05;14.70;99.90
15636;DHT22;7917;50.818;6.972;2023-05-10T06:35:32;14.80;99.90
15636;DHT22;7917;50.818;6.972;2023-05-10T06:38:00;14.80;99.90
15636;DHT22;7917;50.818;6.972;2023-05-10T06:40:28;14.70;99.90
15636;DHT22;7917;50.818;6.972;2023-05-10T06:42:54;14.70;99.90
15636;DHT22;7917;50.818;6.972;2023-05-10T06:45:21;14.50;99.90
15636;DHT22;7917;50.818;6.972;2023-05-10T06:47:48;14.40;99.90
15636;DHT22;7917;50.818;6.972;2023-05-10T06:50:15;14.40;99.90
15636;DHT22;7917;50.818;6.972;2023-05-10T06:52:41;14.30;99.90
15636;DHT22;7917;50.818;6.972;2023-05-10T06:55:09;14.30;99.90
15636;DHT22;7917;50.818;6.972;2023-05-10T06:57:36;14.30;99.90
15636;DHT22;7917;50.818;6.972;2023-05-10T07:00:04;14.30;99.90
15636;DHT22;7917;50.818;6.972;2023-05-10T07:02:31;14.20;99.90
15636;DHT22;7917;50.818;6.972;2023-05-10T07:04:58;14.20;99.90
15636;DHT22;7917;50.818;6.972;2023-05-10T07:07:26;14.20;99.90
15636;DHT22;7917;50.818;6.972;2023-05-10T07:09:52;14.10;99.90
15636;DHT22;7917;50.818;6.972;2023-05-10T07:12:19;14.10;99.90
15636;DHT22;7917;50.818;6.972;2023-05-10T07:14:47;14.00;99.90
15636;DHT22;7917;50.818;6.972;2023-05-10T07:17:14;13.80;99.90
15636;DHT22;7917;50.818;6.972;2023-05-10T07:19:41;13.70;99.90
15636;DHT22;7917;50.818;6.972;2023-05-10T07:22:07;13.70;99.90
15636;DHT22;7917;50.818;6.972;2023-05-10T07:24:34;13.60;99.90
15636;DHT22;7917;50.818;6.972;2023-05-10T07:27:01;13.60;99.90
15636;DHT22;7917;50.818;6.972;2023-05-10T07:29:27;13.60;99.90
15636;DHT22;7917;50.818;6.972;2023-05-10T07:31:57;13.60;99.90
15636;DHT22;7917;50.818;6.972;2023-05-10T07:34:23;13.60;99.90
15636;DHT22;7917;50.818;6.972;2023-05-10T07:36:50;13.60;99.90
15636;DHT22;7917;50.818;6.972;2023-05-10T07:39:18;13.60;99.90
15636;DHT22;7917;50.818;6.972;2023-05-10T07:41:46;13.80;99.90
15636;DHT22;7917;50.818;6.972;2023-05-10T07:44:13;13.80;99.90
15636;DHT22;7917;50.818;6.972;2023-05-10T07:46:40;14.00;99.90
15636;DHT22;7917;50.818;6.972;2023-05-10T07:49:07;14.10;99.90
15636;DHT22;7917;50.818;6.972;2023-05-10T07:51:34;14.30;99.90
15636;DHT22;7917;50.818;6.972;2023-05-10T07:54:01;14.50;99.90
15636;DHT22;7917;50.818;6.972;2023-05-10T07:56:29;14.60;99.90
15636;DHT22;7917;50.818;6.972;2023-05-10T07:58:58;14.70;99.90
15636;DHT22;7917;50.818;6.972;2023-05-10T08:01:26;14.80;99.90
15636;DHT22;7917;50.818;6.972;2023-05-10T08:03:52;15.00;99.90
15636;DHT22;7917;50.818;6.972;2023-05-10T08:06:20;15.20;99.90
15636;DHT22;7917;50.818;6.972;2023-05-10T08:08:48;15.20;99.90
15636;DHT22;7917;50.818;6.972;2023-05-10T08:11:16;15.50;99.90
15636;DHT22;7917;50.818;6.972;2023-05-10T08:13:43;15.70;99.90
15636;DHT22;7917;50.818;6.972;2023-05-10T08:16:10;15.80;99.90
15636;DHT22;7917;50.818;6.972;2023-05-10T08:18:37;15.80;99.90
15636;DHT22;7917;50.818;6.972;2023-05-10T08:21:04;15.70;99.90
15636;DHT22;7917;50.818;6.972;2023-05-10T08:23:31;15.60;99.90
15636;DHT22;7917;50.818;6.972;2023-05-10T08:26:31;15.50;99.90
15636;DHT22;7917;50.818;6.972;2023-05-10T08:36:23;15.10;99.90
15636;DHT22;7917;50.818;6.972;2023-05-10T08:38:51;15.30;99.90
15636;DHT22;7917;50.818;6.972;2023-05-10T08:41:19;15.40;99.90
15636;DHT22;7917;50.818;6.972;2023-05-10T08:43:47;15.40;99.90
15636;DHT22;7917;50.818;6.972;2023-05-10T08:46:16;15.30;99.90
15636;DHT22;7917;50.818;6.972;2023-05-10T08:48:45;15.20;99.90
15636;DHT22;7917;50.818;6.972;2023-05-10T08:51:14;15.00;99.90
15636;DHT22;7917;50.818;6.972;2023-05-10T08:53:41;14.80;99.90
15636;DHT22;7917;50.818;6.972;2023-05-10T08:56:08;14.80;99.90
15636;DHT22;7917;50.818;6.972;2023-05-10T08:58:36;14.90;99.90
15636;DHT22;7917;50.818;6.972;2023-05-10T09:01:03;15.00;99.90
15636;DHT22;7917;50.818;6.972;2023-05-10T09:03:31;15.30;99.90
15636;DHT22;7917;50.818;6.972;2023-05-10T09:05:58;15.30;99.90
15636;DHT22;7917;50.818;6.972;2023-05-10T09:08:26;15.20;99.90
15636;DHT22;7917;50.818;6.972;2023-05-10T09:10:54;15.20;99.90
15636;DHT22;7917;50.818;6.972;2023-05-10T09:13:22;15.20;99.90
15636;DHT22;7917;50.818;6.972;2023-05-10T09:15:51;15.10;99.90
15636;DHT22;7917;50.818;6.972;2023-05-10T09:18:18;15.10;99.90
15636;DHT22;7917;50.818;6.972;2023-05-10T09:20:44;14.90;99.90
15636;DHT22;7917;50.818;6.972;2023-05-10T09:23:11;14.90;99.90
15636;DHT22;7917;50.818;6.972;2023-05-10T09:25:38;14.90;99.90
15636;DHT22;7917;50.818;6.972;2023-05-10T09:28:07;15.00;99.90
15636;DHT22;7917;50.818;6.972;2023-05-10T09:30:36;15.20;99.90
15636;DHT22;7917;50.818;6.972;2023-05-10T09:33:02;15.40;99.90
15636;DHT22;7917;50.818;6.972;2023-05-10T09:35:31;15.40;99.90
15636;DHT22;7917;50.818;6.972;2023-05-10T09:38:03;15.60;99.90
15636;DHT22;7917;50.818;6.972;2023-05-10T09:40:31;16.00;99.90
15636;DHT22;7917;50.818;6.972;2023-05-10T09:42:59;16.30;99.90
15636;DHT22;7917;50.818;6.972;2023-05-10T09:45:27;16.30;99.90
15636;DHT22;7917;50.818;6.972;2023-05-10T09:47:55;15.90;99.90
15636;DHT22;7917;50.818;6.972;2023-05-10T09:50:23;15.60;99.90
15636;DHT22;7917;50.818;6.972;2023-05-10T09:52:51;15.60;99.90
15636;DHT22;7917;50.818;6.972;2023-05-10T09:55:20;15.60;99.90
15636;DHT22;7917;50.818;6.972;2023-05-10T09:57:47;15.40;99.90
15636;DHT22;7917;50.818;6.972;2023-05-10T10:00:18;15.40;99.90
15636;DHT22;7917;50.818;6.972;2023-05-10T10:02:57;15.60;99.90
15636;DHT22;7917;50.818;6.972;2023-05-10T10:05:28;15.70;99.90
15636;DHT22;7917;50.818;6.972;2023-05-10T10:07:56;15.90;99.90
15636;DHT22;7917;50.818;6.972;2023-05-10T10:10:23;16.20;99.90
15636;DHT22;7917;50.818;6.972;2023-05-10T10:12:51;16.30;99.90
15636;DHT22;7917;50.818;6.972;2023-05-10T10:15:17;16.30;1.00
15636;DHT22;7917;50.818;6.972;2023-05-10T10:17:44;16.50;1.00
15636;DHT22;7917;50.818;6.972;2023-05-10T10:20:12;16.40;1.00
15636;DHT22;7917;50.818;6.972;2023-05-10T10:22:39;16.60;99.90
15636;DHT22;7917;50.818;6.972;2023-05-10T10:25:08;16.60;87.50
15636;DHT22;7917;50.818;6.972;2023-05-10T10:27:43;16.90;99.90
15636;DHT22;7917;50.818;6.972;2023-05-10T10:30:20;16.60;99.90
15636;DHT22;7917;50.818;6.972;2023-05-10T10:33:08;16.40;1.00
15636;DHT22;7917;50.818;6.972;2023-05-10T10:35:38;16.90;1.00
15636;DHT22;7917;50.818;6.972;2023-05-10T10:38:08;16.70;99.90
15636;DHT22;7917;50.818;6.972;2023-05-10T10:40:34;16.60;99.90
15636;DHT22;7917;50.818;6.972;2023-05-10T10:43:22;16.70;99.90
15636;DHT22;7917;50.818;6.972;2023-05-10T10:46:17;16.80;99.90
15636;DHT22;7917;50.818;6.972;2023-05-10T10:48:49;17.00;99.90
15636;DHT22;7917;50.818;6.972;2023-05-10T10:51:17;17.10;99.90
15636;DHT22;7917;50.818;6.972;2023-05-10T10:53:44;17.40;1.00
15636;DHT22;7917;50.818;6.972;2023-05-10T10:56:14;17.30;99.90
15636;DHT22;7917;50.818;6.972;2023-05-10T10:59:23;17.10;1.00
15636;DHT22;7917;50.818;6.972;2023-05-10T11:01:53;16.80;99.90
15636;DHT22;7917;50.818;6.972;2023-05-10T11:04:19;16.90;99.90
15636;DHT22;7917;50.818;6.972;2023-05-10T11:06:47;16.90;99.90
15636;DHT22;7917;50.818;6.972;2023-05-10T11:09:14;17.00;99.90
15636;DHT22;7917;50.818;6.972;2023-05-10T11:11:51;16.90;1.00
15636;DHT22;7917;50.818;6.972;2023-05-10T11:14:20;17.00;99.90
15636;DHT22;7917;50.818;6.972;2023-05-10T11:16:48;17.10;1.00
15636;DHT22;7917;50.818;6.972;2023-05-10T11:19:16;16.90;99.90
15636;DHT22;7917;50.818;6.972;2023-05-10T11:21:47;17.10;99.90
15636;DHT22;7917;50.818;6.972;2023-05-10T11:24:16;17.10;99.90
15636;DHT22;7917;50.818;6.972;2023-05-10T11:26:43;17.40;1.00
15636;DHT22;7917;50.818;6.972;2023-05-10T11:29:12;17.40;99.90
15636;DHT22;7917;50.818;6.972;2023-05-10T11:31:42;17.60;1.00
15636;DHT22;7917;50.818;6.972;2023-05-10T11:34:10;17.70;1.00
15636;DHT22;7917;50.818;6.972;2023-05-10T11:36:37;18.00;1.00
15636;DHT22;7917;50.818;6.972;2023-05-10T11:39:05;18.20;1.00
15636;DHT22;7917;50.818;6.972;2023-05-10T11:41:32;18.10;1.00
15636;DHT22;7917;50.818;6.972;2023-05-10T11:43:59;18.00;99.90
15636;DHT22;7917;50.818;6.972;2023-05-10T11:46:27;17.90;1.00
15636;DHT22;7917;50.818;6.972;2023-05-10T11:48:58;17.60;1.00
15636;DHT22;7917;50.818;6.972;2023-05-10T11:51:27;17.80;1.00
15636;DHT22;7917;50.818;6.972;2023-05-10T11:53:55;18.10;1.00
15636;DHT22;7917;50.818;6.972;2023-05-10T11:56:24;18.60;1.00
15636;DHT22;7917;50.818;6.972;2023-05-10T11:58:55;19.00;99.90
15636;DHT22;7917;50.818;6.972;2023-05-10T12:01:23;19.40;99.90
15636;DHT22;7917;50.818;6.972;2023-05-10T12:03:50;19.90;99.90
15636;DHT22;7917;50.818;6.972;2023-05-10T12:06:18;20.10;99.90
15636;DHT22;7917;50.818;6.972;2023-05-10T12:08:46;19.70;99.90
15636;DHT22;7917;50.818;6.972;2023-05-10T12:11:13;19.30;99.90
15636;DHT22;7917;50.818;6.972;2023-05-10T12:13:44;18.90;99.90
15636;DHT22;7917;50.818;6.972;2023-05-10T12:16:16;18.90;99.90
15636;DHT22;7917;50.818;6.972;2023-05-10T12:18:43;18.80;99.90
15636;DHT22;7917;50.818;6.972;2023-05-10T12:21:11;18.70;99.90
15636;DHT22;7917;50.818;6.972;2023-05-10T12:23:38;18.90;99.90
15636;DHT22;7917;50.818;6.972;2023-05-10T12:26:05;19.00;99.90
15636;DHT22;7917;50.818;6.972;2023-05-10T12:28:32;19.30;99.90
15636;DHT22;7917;50.818;6.972;2023-05-10T12:31:15;19.60;99.90
15636;DHT22;7917;50.818;6.972;2023-05-10T12:33:43;19.60;99.90
15636;DHT22;7917;50.818;6.972;2023-05-10T12:36:12;19.60;99.90
15636;DHT22;7917;50.818;6.972;2023-05-10T12:38:40;20.00;99.90
15636;DHT22;7917;50.818;6.972;2023-05-10T12:41:10;20.30;99.90
15636;DHT22;7917;50.818;6.972;2023-05-10T12:43:37;20.20;99.90
15636;DHT22;7917;50.818;6.972;2023-05-10T12:46:05;19.80;99.90
15636;DHT22;7917;50.818;6.972;2023-05-10T12:48:33;19.60;99.90
15636;DHT22;7917;50.818;6.972;2023-05-10T12:51:00;19.60;99.90
15636;DHT22;7917;50.818;6.972;2023-05-10T12:53:27;19.50;99.90
15636;DHT22;7917;50.818;6.972;2023-05-10T12:55:57;19.50;99.90
15636;DHT22;7917;50.818;6.972;2023-05-10T12:58:27;19.90;99.90
15636;DHT22;7917;50.818;6.972;2023-05-10T13:00:54;20.50;99.90
15636;DHT22;7917;50.818;6.972;2023-05-10T13:03:22;20.50;99.90
15636;DHT22;7917;50.818;6.972;2023-05-10T13:05:49;20.40;99.90
15636;DHT22;7917;50.818;6.972;2023-05-10T13:08:16;19.80;99.90
15636;DHT22;7917;50.818;6.972;2023-05-10T13:10:43;19.90;99.90
15636;DHT22;7917;50.818;6.972;2023-05-10T13:13:10;20.40;99.90
15636;DHT22;7917;50.818;6.972;2023-05-10T13:15:37;20.60;99.90
15636;DHT22;7917;50.818;6.972;2023-05-10T13:18:03;20.10;99.90
15636;DHT22;7917;50.818;6.972;2023-05-10T13:20:31;20.00;99.90
15636;DHT22;7917;50.818;6.972;2023-05-10T13:22:58;20.20;99.90
15636;DHT22;7917;50.818;6.972;2023-05-10T13:25:25;20.50;99.90
15636;DHT22;7917;50.818;6.972;2023-05-10T13:27:52;20.60;99.90
15636;DHT22;7917;50.818;6.972;2023-05-10T13:30:19;20.20;99.90
15636;DHT22;7917;50.818;6.972;2023-05-10T13:32:46;20.00;99.90
15636;DHT22;7917;50.818;6.972;2023-05-10T13:35:13;19.60;99.90
15636;DHT22;7917;50.818;6.972;2023-05-10T13:37:39;19.60;99.90
15636;DHT22;7917;50.818;6.972;2023-05-10T13:40:08;19.50;99.90
15636;DHT22;7917;50.818;6.972;2023-05-10T13:42:35;19.60;99.90
15636;DHT22;7917;50.818;6.972;2023-05-10T13:45:02;19.50;99.90
15636;DHT22;7917;50.818;6.972;2023-05-10T13:47:29;19.50;99.90
15636;DHT22;7917;50.818;6.972;2023-05-10T13:49:57;19.20;99.90
15636;DHT22;7917;50.818;6.972;2023-05-10T13:52:24;19.30;99.90
15636;DHT22;7917;50.818;6.972;2023-05-10T13:54:51;19.40;99.90
15636;DHT22;7917;50.818;6.972;2023-05-10T13:57:22;19.60;99.90
15636;DHT22;7917;50.818;6.972;2023-05-10T13:59:49;19.30;99.90
15636;DHT22;7917;50.818;6.972;2023-05-10T14:02:16;19.40;99.90
15636;DHT22;7917;50.818;6.972;2023-05-10T14:04:43;19.50;99.90
15636;DHT22;7917;50.818;6.972;2023-05-10T14:07:10;19.40;99.90
15636;DHT22;7917;50.818;6.972;2023-05-10T14:09:36;19.10;99.90
15636;DHT22;7917;50.818;6.972;2023-05-10T14:12:04;18.90;99.90
15636;DHT22;7917;50.818;6.972;2023-05-10T14:14:31;18.60;99.90
15636;DHT22;7917;50.818;6.972;2023-05-10T14:16:58;18.30;99.90
15636;DHT22;7917;50.818;6.972;2023-05-10T14:19:26;18.20;99.90
15636;DHT22;7917;50.818;6.972;2023-05-10T14:21:53;18.20;99.90
15636;DHT22;7917;50.818;6.972;2023-05-10T14:24:20;18.30;99.90
15636;DHT22;7917;50.818;6.972;2023-05-10T14:26:47;18.50;99.90
15636;DHT22;7917;50.818;6.972;2023-05-10T14:29:13;18.80;99.90
15636;DHT22;7917;50.818;6.972;2023-05-10T14:31:41;19.10;99.90
15636;DHT22;7917;50.818;6.972;2023-05-10T14:34:07;19.40;99.90
15636;DHT22;7917;50.818;6.972;2023-05-10T14:36:35;19.90;99.90
15636;DHT22;7917;50.818;6.972;2023-05-10T14:39:01;20.20;99.90
15636;DHT22;7917;50.818;6.972;2023-05-10T14:41:28;20.10;99.90
15636;DHT22;7917;50.818;6.972;2023-05-10T14:43:56;19.70;99.90
15636;DHT22;7917;50.818;6.972;2023-05-10T14:46:22;19.40;99.90
15636;DHT22;7917;50.818;6.972;2023-05-10T14:48:50;19.20;99.90
15636;DHT22;7917;50.818;6.972;2023-05-10T14:55:06;19.10;99.90
15636;DHT22;7917;50.818;6.972;2023-05-10T14:57:33;18.80;99.90
15636;DHT22;7917;50.818;6.972;2023-05-10T15:00:31;19.00;99.90
15636;DHT22;7917;50.818;6.972;2023-05-10T15:02:58;19.00;99.90
15636;DHT22;7917;50.818;6.972;2023-05-10T15:08:47;19.40;99.90
15636;DHT22;7917;50.818;6.972;2023-05-10T15:18:44;18.80;99.90
15636;DHT22;7917;50.818;6.972;2023-05-10T15:21:32;18.30;99.90
15636;DHT22;7917;50.818;6.972;2023-05-10T15:24:18;18.10;99.90
15636;DHT22;7917;50.818;6.972;2023-05-10T15:26:51;18.10;99.90
15636;DHT22;7917;50.818;6.972;2023-05-10T15:33:10;18.20;99.90
15636;DHT22;7917;50.818;6.972;2023-05-10T15:35:37;18.00;99.90
15636;DHT22;7917;50.818;6.972;2023-05-10T15:41:29;17.50;99.90
15636;DHT22;7917;50.818;6.972;2023-05-10T15:43:57;17.30;99.90
15636;DHT22;7917;50.818;6.972;2023-05-10T15:46:25;17.10;99.90
15636;DHT22;7917;50.818;6.972;2023-05-10T15:49:12;17.10;99.90
15636;DHT22;7917;50.818;6.972;2023-05-10T15:51:39;17.00;1.00
15636;DHT22;7917;50.818;6.972;2023-05-10T15:54:07;17.00;1.00
15636;DHT22;7917;50.818;6.972;2023-05-10T15:56:35;16.90;1.00
15636;DHT22;7917;50.818;6.972;2023-05-10T15:59:01;16.80;99.90
15636;DHT22;7917;50.818;6.972;2023-05-10T16:01:31;16.70;99.90
15636;DHT22;7917;50.818;6.972;2023-05-10T16:03:58;16.60;99.90
15636;DHT22;7917;50.818;6.972;2023-05-10T16:06:26;16.40;99.90
15636;DHT22;7917;50.818;6.972;2023-05-10T16:08:52;16.10;1.00
15636;DHT22;7917;50.818;6.972;2023-05-10T16:11:22;15.90;99.90
15636;DHT22;7917;50.818;6.972;2023-05-10T16:13:49;15.80;1.00
15636;DHT22;7917;50.818;6.972;2023-05-10T16:16:28;15.60;1.00
15636;DHT22;7917;50.818;6.972;2023-05-10T16:18:55;15.60;1.00
15636;DHT22;7917;50.818;6.972;2023-05-10T16:21:22;15.60;1.00
15636;DHT22;7917;50.818;6.972;2023-05-10T16:23:49;15.60;99.90
15636;DHT22;7917;50.818;6.972;2023-05-10T16:26:16;15.50;99.90
15636;DHT22;7917;50.818;6.972;2023-05-10T16:28:49;15.50;1.00
15636;DHT22;7917;50.818;6.972;2023-05-10T16:31:16;15.40;99.90
15636;DHT22;7917;50.818;6.972;2023-05-10T16:33:43;15.50;99.90
15636;DHT22;7917;50.818;6.972;2023-05-10T16:36:10;15.60;1.00
15636;DHT22;7917;50.818;6.972;2023-05-10T16:38:37;15.60;99.90
15636;DHT22;7917;50.818;6.972;2023-05-10T16:41:04;15.70;1.00
15636;DHT22;7917;50.818;6.972;2023-05-10T16:43:32;15.90;7.70
15636;DHT22;7917;50.818;6.972;2023-05-10T16:45:59;16.10;1.00
15636;DHT22;7917;50.818;6.972;2023-05-10T16:48:26;16.20;99.90
15636;DHT22;7917;50.818;6.972;2023-05-10T16:50:53;16.20;99.90
15636;DHT22;7917;50.818;6.972;2023-05-10T16:53:20;16.40;83.00
15636;DHT22;7917;50.818;6.972;2023-05-10T16:55:47;16.60;1.00
15636;DHT22;7917;50.818;6.972;2023-05-10T16:58:13;16.90;1.00
15636;DHT22;7917;50.818;6.972;2023-05-10T17:00:40;17.30;99.90
15636;DHT22;7917;50.818;6.972;2023-05-10T17:03:08;17.40;99.90
15636;DHT22;7917;50.818;6.972;2023-05-10T17:05:35;17.30;99.90
15636;DHT22;7917;50.818;6.972;2023-05-10T17:08:02;17.20;99.90
15636;DHT22;7917;50.818;6.972;2023-05-10T17:10:28;17.20;99.90
15636;DHT22;7917;50.818;6.972;2023-05-10T17:12:56;17.10;99.90
15636;DHT22;7917;50.818;6.972;2023-05-10T17:15:24;16.90;99.90
15636;DHT22;7917;50.818;6.972;2023-05-10T17:17:51;16.60;99.90
15636;DHT22;7917;50.818;6.972;2023-05-10T17:20:19;16.40;99.90